IBE0604 LEMD-LEZL
Flight info
| Callsign | IBE0604 |
|---|---|
| Flight time | 0h 42m |
| Altitude | 29000 |
| Route | VTB N10 HIJ |
| Aircraft | B739/M-SDE2E3FGHIRWXY/LB1 |
Departure
| Time | 2026-05-01 08:05 |
|---|---|
| Airport | Adolfo Suárez Madrid–Barajas Airport (LEMD) |
Arrival
| Time | 2026-05-01 08:47 |
|---|---|
| Airport | Seville Airport (LEZL) |
| Time | Latitude | Longitude | Altitude | Speed | Heading |
|---|---|---|---|---|---|
| 2026-05-01 07:59 | 40.49409 | -3.56877 | 2011 ft | 0 kts | 90° |
| 2026-05-01 08:01 | 40.49409 | -3.56878 | 2011 ft | 1 kts | 90° |
| 2026-05-01 08:01 | 40.49409 | -3.56882 | 2011 ft | 0 kts | 90° |
| 2026-05-01 08:01 | 40.49409 | -3.56881 | 2011 ft | 1 kts | 90° |
| 2026-05-01 08:02 | 40.49409 | -3.56922 | 2011 ft | 3 kts | 90° |
| 2026-05-01 08:02 | 40.49409 | -3.56949 | 2011 ft | 3 kts | 90° |
| 2026-05-01 08:03 | 40.49409 | -3.56987 | 2011 ft | 3 kts | 90° |
| 2026-05-01 08:03 | 40.49371 | -3.56949 | 2011 ft | 12 kts | 185° |
| 2026-05-01 08:03 | 40.49264 | -3.57185 | 2011 ft | 17 kts | 225° |
| 2026-05-01 08:04 | 40.49249 | -3.57430 | 2011 ft | 16 kts | 329° |
| 2026-05-01 08:04 | 40.50639 | -3.57447 | 2058 ft | 180 kts | 1° |
| 2026-05-01 08:05 | 40.53413 | -3.56424 | 4007 ft | 226 kts | 37° |
| 2026-05-01 08:05 | 40.54406 | -3.54746 | 4982 ft | 242 kts | 62° |
| 2026-05-01 08:05 | 40.54793 | -3.52540 | 5925 ft | 258 kts | 86° |
| 2026-05-01 08:06 | 40.53411 | -3.48018 | 7675 ft | 285 kts | 135° |
| 2026-05-01 08:06 | 40.49846 | -3.45911 | 9662 ft | 287 kts | 179° |
| 2026-05-01 08:07 | 40.45765 | -3.45270 | 11703 ft | 307 kts | 178° |
| 2026-05-01 08:07 | 40.41383 | -3.45785 | 13530 ft | 325 kts | 198° |
| 2026-05-01 08:08 | 40.39229 | -3.46713 | 14683 ft | 327 kts | 202° |
| 2026-05-01 08:08 | 40.34940 | -3.48760 | 16947 ft | 338 kts | 204° |
| 2026-05-01 08:09 | 40.30364 | -3.51039 | 18588 ft | 365 kts | 201° |
| 2026-05-01 08:09 | 40.27868 | -3.51906 | 19437 ft | 377 kts | 196° |
| 2026-05-01 08:09 | 40.25280 | -3.52443 | 20300 ft | 385 kts | 190° |
| 2026-05-01 08:10 | 40.19816 | -3.52627 | 21938 ft | 401 kts | 181° |
| 2026-05-01 08:10 | 40.14168 | -3.52004 | 23385 ft | 414 kts | 177° |
| 2026-05-01 08:11 | 40.09334 | -3.51156 | 24484 ft | 422 kts | 175° |
| 2026-05-01 08:11 | 40.02481 | -3.50009 | 25822 ft | 432 kts | 176° |
| 2026-05-01 08:12 | 39.97453 | -3.49233 | 26699 ft | 438 kts | 176° |
| 2026-05-01 08:12 | 39.93427 | -3.48630 | 27345 ft | 442 kts | 176° |
| 2026-05-01 08:12 | 39.88293 | -3.47871 | 28283 ft | 443 kts | 176° |
| 2026-05-01 08:13 | 39.85237 | -3.47442 | 28827 ft | 442 kts | 178° |
| 2026-05-01 08:13 | 39.82174 | -3.47529 | 28954 ft | 438 kts | 188° |
| 2026-05-01 08:13 | 39.76395 | -3.49626 | 28994 ft | 430 kts | 208° |
| 2026-05-01 08:14 | 39.71525 | -3.53992 | 28996 ft | 423 kts | 224° |
| 2026-05-01 08:14 | 39.67400 | -3.59405 | 28996 ft | 421 kts | 230° |
| 2026-05-01 08:15 | 39.61541 | -3.67880 | 28996 ft | 421 kts | 229° |
| 2026-05-01 08:16 | 39.57499 | -3.73381 | 28995 ft | 421 kts | 228° |
| 2026-05-01 08:16 | 39.53402 | -3.78805 | 28996 ft | 421 kts | 227° |
| 2026-05-01 08:17 | 39.49286 | -3.84198 | 28996 ft | 421 kts | 227° |
| 2026-05-01 08:17 | 39.45164 | -3.89582 | 28995 ft | 421 kts | 227° |
| 2026-05-01 08:18 | 39.41040 | -3.94955 | 28995 ft | 421 kts | 227° |
| 2026-05-01 08:19 | 39.32776 | -4.05688 | 28996 ft | 421 kts | 227° |
| 2026-05-01 08:19 | 39.28644 | -4.11039 | 28996 ft | 421 kts | 227° |
| 2026-05-01 08:20 | 39.24505 | -4.16392 | 28995 ft | 421 kts | 227° |
| 2026-05-01 08:20 | 39.20367 | -4.21737 | 28996 ft | 421 kts | 227° |
| 2026-05-01 08:21 | 39.16226 | -4.27075 | 28996 ft | 421 kts | 227° |
| 2026-05-01 08:21 | 39.12083 | -4.32409 | 28996 ft | 421 kts | 227° |
| 2026-05-01 08:22 | 39.07940 | -4.37733 | 28996 ft | 421 kts | 227° |
| 2026-05-01 08:22 | 39.03789 | -4.43057 | 28995 ft | 421 kts | 227° |
| 2026-05-01 08:23 | 38.99667 | -4.48335 | 28995 ft | 421 kts | 227° |
| 2026-05-01 08:23 | 38.95517 | -4.53638 | 28996 ft | 421 kts | 227° |
| 2026-05-01 08:24 | 38.91355 | -4.58920 | 28996 ft | 421 kts | 227° |
| 2026-05-01 08:24 | 38.87178 | -4.64176 | 28996 ft | 421 kts | 227° |
| 2026-05-01 08:25 | 38.83004 | -4.69439 | 28996 ft | 421 kts | 227° |
| 2026-05-01 08:25 | 38.78835 | -4.74709 | 28995 ft | 421 kts | 227° |
| 2026-05-01 08:26 | 38.74671 | -4.79979 | 28996 ft | 421 kts | 227° |
| 2026-05-01 08:26 | 38.70578 | -4.85155 | 28854 ft | 400 kts | 227° |
| 2026-05-01 08:26 | 38.68626 | -4.87617 | 28562 ft | 390 kts | 227° |
| 2026-05-01 08:27 | 38.66712 | -4.90027 | 28141 ft | 383 kts | 227° |
| 2026-05-01 08:27 | 38.64819 | -4.92411 | 27622 ft | 379 kts | 227° |
| 2026-05-01 08:27 | 38.62946 | -4.94769 | 27077 ft | 377 kts | 227° |
| 2026-05-01 08:27 | 38.61088 | -4.97109 | 26553 ft | 373 kts | 227° |
| 2026-05-01 08:28 | 38.59247 | -4.99426 | 26029 ft | 370 kts | 227° |
| 2026-05-01 08:28 | 38.57423 | -5.01720 | 25499 ft | 367 kts | 227° |
| 2026-05-01 08:28 | 38.55612 | -5.03997 | 24971 ft | 363 kts | 227° |
| 2026-05-01 08:28 | 38.53818 | -5.06250 | 24446 ft | 360 kts | 227° |
| 2026-05-01 08:29 | 38.52005 | -5.08444 | 23914 ft | 359 kts | 223° |
| 2026-05-01 08:29 | 38.49982 | -5.10283 | 23434 ft | 357 kts | 215° |
| 2026-05-01 08:29 | 38.47782 | -5.11829 | 22888 ft | 356 kts | 210° |
| 2026-05-01 08:29 | 38.45563 | -5.13133 | 22346 ft | 355 kts | 207° |
| 2026-05-01 08:30 | 38.43288 | -5.14328 | 21817 ft | 353 kts | 205° |
| 2026-05-01 08:30 | 38.41008 | -5.15450 | 21290 ft | 350 kts | 205° |
| 2026-05-01 08:30 | 38.38744 | -5.16563 | 20756 ft | 347 kts | 205° |
| 2026-05-01 08:30 | 38.36470 | -5.17698 | 20224 ft | 344 kts | 205° |
| 2026-05-01 08:31 | 38.34259 | -5.18821 | 19702 ft | 341 kts | 205° |
| 2026-05-01 08:31 | 38.32066 | -5.19949 | 19175 ft | 338 kts | 206° |
| 2026-05-01 08:31 | 38.29896 | -5.21074 | 18648 ft | 336 kts | 206° |
| 2026-05-01 08:31 | 38.27772 | -5.22182 | 18129 ft | 333 kts | 206° |
| 2026-05-01 08:32 | 38.25639 | -5.23299 | 17602 ft | 330 kts | 206° |
| 2026-05-01 08:32 | 38.23500 | -5.24421 | 17069 ft | 327 kts | 206° |
| 2026-05-01 08:32 | 38.21402 | -5.25523 | 16543 ft | 325 kts | 206° |
| 2026-05-01 08:32 | 38.19324 | -5.26615 | 16017 ft | 322 kts | 206° |
| 2026-05-01 08:33 | 38.17261 | -5.27700 | 15489 ft | 320 kts | 206° |
| 2026-05-01 08:33 | 38.15215 | -5.28776 | 14962 ft | 317 kts | 206° |
| 2026-05-01 08:33 | 38.13187 | -5.29842 | 14436 ft | 314 kts | 206° |
| 2026-05-01 08:33 | 38.11170 | -5.30903 | 13909 ft | 312 kts | 206° |
| 2026-05-01 08:34 | 38.09173 | -5.31953 | 13380 ft | 310 kts | 206° |
| 2026-05-01 08:34 | 38.07192 | -5.32994 | 12854 ft | 307 kts | 206° |
| 2026-05-01 08:34 | 38.05227 | -5.34027 | 12375 ft | 303 kts | 206° |
| 2026-05-01 08:34 | 38.03312 | -5.35029 | 12141 ft | 292 kts | 206° |
| 2026-05-01 08:35 | 38.01473 | -5.35990 | 11968 ft | 280 kts | 206° |
| 2026-05-01 08:35 | 37.99720 | -5.36906 | 11730 ft | 273 kts | 206° |
| 2026-05-01 08:35 | 37.97957 | -5.37828 | 11396 ft | 270 kts | 206° |
| 2026-05-01 08:35 | 37.96248 | -5.38724 | 11016 ft | 269 kts | 206° |
| 2026-05-01 08:36 | 37.94500 | -5.39641 | 10710 ft | 269 kts | 206° |
| 2026-05-01 08:36 | 37.92774 | -5.40529 | 10515 ft | 265 kts | 206° |
| 2026-05-01 08:36 | 37.91072 | -5.41429 | 10139 ft | 265 kts | 207° |
| 2026-05-01 08:36 | 37.89373 | -5.42327 | 9780 ft | 264 kts | 207° |
| 2026-05-01 08:37 | 37.87702 | -5.43207 | 9449 ft | 262 kts | 206° |
| 2026-05-01 08:37 | 37.85999 | -5.44102 | 9104 ft | 261 kts | 206° |
| 2026-05-01 08:37 | 37.84322 | -5.44981 | 8768 ft | 260 kts | 206° |
| 2026-05-01 08:37 | 37.82654 | -5.45853 | 8439 ft | 259 kts | 206° |
| 2026-05-01 08:38 | 37.80996 | -5.46717 | 8114 ft | 258 kts | 206° |
| 2026-05-01 08:38 | 37.79344 | -5.47578 | 7793 ft | 256 kts | 206° |
| 2026-05-01 08:38 | 37.77695 | -5.48435 | 7477 ft | 255 kts | 206° |
| 2026-05-01 08:38 | 37.76060 | -5.49285 | 7166 ft | 254 kts | 206° |
| 2026-05-01 08:39 | 37.74429 | -5.50133 | 6858 ft | 253 kts | 206° |
| 2026-05-01 08:39 | 37.72803 | -5.50977 | 6554 ft | 252 kts | 206° |
| 2026-05-01 08:39 | 37.71181 | -5.51819 | 6217 ft | 253 kts | 206° |
| 2026-05-01 08:39 | 37.69549 | -5.52669 | 5854 ft | 255 kts | 206° |
| 2026-05-01 08:40 | 37.66245 | -5.54391 | 5184 ft | 258 kts | 205° |
| 2026-05-01 08:40 | 37.64588 | -5.55254 | 4888 ft | 258 kts | 204° |
| 2026-05-01 08:40 | 37.62936 | -5.56112 | 4606 ft | 257 kts | 204° |
| 2026-05-01 08:41 | 37.61285 | -5.56969 | 4338 ft | 256 kts | 203° |
| 2026-05-01 08:41 | 37.59643 | -5.57821 | 4082 ft | 254 kts | 203° |
| 2026-05-01 08:41 | 37.58013 | -5.58666 | 3835 ft | 253 kts | 202° |
| 2026-05-01 08:41 | 37.56394 | -5.59504 | 3596 ft | 251 kts | 202° |
| 2026-05-01 08:42 | 37.54790 | -5.60334 | 3364 ft | 248 kts | 202° |
| 2026-05-01 08:42 | 37.53196 | -5.61158 | 3142 ft | 246 kts | 202° |
| 2026-05-01 08:42 | 37.51636 | -5.61963 | 3059 ft | 238 kts | 202° |
| 2026-05-01 08:42 | 37.50130 | -5.62739 | 3015 ft | 229 kts | 202° |
| 2026-05-01 08:43 | 37.48685 | -5.63483 | 2996 ft | 220 kts | 202° |
| 2026-05-01 08:43 | 37.47313 | -5.64190 | 2989 ft | 211 kts | 202° |
| 2026-05-01 08:43 | 37.45979 | -5.64883 | 2982 ft | 203 kts | 204° |
| 2026-05-01 08:43 | 37.44885 | -5.65932 | 2928 ft | 197 kts | 230° |
| 2026-05-01 08:44 | 37.44302 | -5.67458 | 3043 ft | 191 kts | 251° |
| 2026-05-01 08:44 | 37.43982 | -5.69058 | 3360 ft | 192 kts | 257° |
| 2026-05-01 08:44 | 37.43686 | -5.70731 | 3449 ft | 195 kts | 258° |
| 2026-05-01 08:44 | 37.43398 | -5.72396 | 3016 ft | 201 kts | 258° |
| 2026-05-01 08:45 | 37.43100 | -5.74160 | 2459 ft | 211 kts | 258° |
| 2026-05-01 08:45 | 37.42795 | -5.75995 | 1896 ft | 218 kts | 258° |
| 2026-05-01 08:45 | 37.42525 | -5.77890 | 1330 ft | 222 kts | 261° |
| 2026-05-01 08:45 | 37.42315 | -5.79819 | 992 ft | 211 kts | 262° |
| 2026-05-01 08:46 | 37.42134 | -5.81569 | 974 ft | 193 kts | 263° |
| 2026-05-01 08:46 | 37.41972 | -5.83160 | 985 ft | 175 kts | 263° |
| 2026-05-01 08:46 | 37.41827 | -5.84622 | 700 ft | 169 kts | 262° |
| 2026-05-01 08:46 | 37.41787 | -5.86081 | 370 ft | 160 kts | 268° |
| 2026-05-01 08:47 | 37.41801 | -5.87420 | 123 ft | 150 kts | 269° |
| 2026-05-01 08:47 | 37.41799 | -5.88459 | 122 ft | 91 kts | 270° |
| 2026-05-01 08:47 | 37.41818 | -5.89146 | 122 ft | 55 kts | 289° |
| 2026-05-01 08:47 | 37.41986 | -5.89454 | 122 ft | 45 kts | 318° |
| 2026-05-01 08:48 | 37.42205 | -5.89726 | 122 ft | 32 kts | 312° |
| 2026-05-01 08:48 | 37.42242 | -5.89774 | 122 ft | 0 kts | 317° |
| 2026-05-01 08:48 | 37.42242 | -5.89775 | 122 ft | 0 kts | 317° |